Hallwood, Virginia
Current Conditions -  °F | °C
As of 2:54 AM on Thursday 29 Jan 2015 (Local Time) from KWAL Reporting Station
Clear Clear  
Wind Chill: 16°   Ceiling: Unl
Heat Index: 24°   Visibility: 10mi
Dew Point: 11°   Wind: 7mph
Humidity: 57%   Direction: 330°NNW
Pressure: 30.32"   Gusts: NA
Location:  37.88°N, 75.59°W
Report Text: KWAL 290754Z AUTO 33006KT 10SM CLR M04/M12 A3032 RMK AO2 SLP264 T10441117
Loading
Personal Weather Stations






























Interactive Weather Map New forecast layout! Learn more

10-Day Weather Forecast

Advertisements
Track Severe Weather on mobile